ADDS METAR Data INFO
IDs: Format: Raw Decoded Include TAF

Data at: 0840 UTC 21 Oct 2017

PARS 210756Z AUTO 00000KT 10SM CLR M06/M07 A2924 RMK AO2 SLP907 T10611072 410111061 FZRANO $
PARS 210729Z AUTO 00000KT 10SM SCT022 M06/M07 A2924 RMK AO2 FZRANO $
PARS 210656Z AUTO 22004KT 10SM BKN019 BKN050 M05/M07 A2924 RMK AO2 SLP906 T10501067 FZRANO $
PARS 210616Z AUTO 18003KT 10SM SCT025 SCT031 BKN055 M04/M06 A2924 RMK AO2 FZRANO $
PARS 210556Z AUTO 19005KT 10SM OVC027 M03/M06 A2924 RMK AO2 SLP904 T10331056 11011 21044 51004 FZRANO $
PARS 210553Z AUTO 20005KT 10SM OVC025 M03/M06 A2923 RMK AO2 FZRANO $
PARS 210529Z AUTO 22005KT 10SM BKN030 BKN045 M04/M06 A2923 RMK AO2 FZRANO $
PARS 210522Z AUTO 20005KT 10SM BKN029 BKN035 BKN047 M04/M06 A2923 RMK AO2 FZRANO $
PARS 210456Z AUTO 20004KT 10SM BKN033 M04/M06 A2923 RMK AO2 SLP902 T10391056 FZRANO $
PARS 210356Z AUTO 19005KT 10SM CLR M04/M07 A2922 RMK AO2 SLP901 T10441067 FZRANO $
PARS 210256Z AUTO 21003KT 10SM CLR M03/M06 A2922 RMK AO2 SLP900 T10281061 56002 FZRANO $
PARS 210237Z AUTO 18006KT 10SM FEW021 M02/M06 A2922 RMK AO2 FZRANO $
PARS 210203Z AUTO 18006KT 10SM BKN019 M02/M05 A2922 RMK AO2 FZRANO $
PARS 210156Z AUTO 19007KT 10SM FEW015 SCT021 M02/M05 A2922 RMK AO2 SLP900 T10171050 FZRANO $
PARS 210151Z AUTO 18006KT 10SM SCT021 M01/M05 A2922 RMK AO2 FZRANO $
PARS 210056Z AUTO 19007KT 10SM BKN017 M02/M05 A2923 RMK AO2 SLP902 T10171050 FZRANO $
PARS 210027Z AUTO 25003KT 10SM BKN017 M02/M05 A2923 RMK AO2 FZRANO $
PARS 210018Z AUTO 25003KT 10SM SCT017 M03/M05 A2923 RMK AO2 FZRANO $
PARS 202356Z AUTO 25005KT 10SM BKN015 BKN021 M03/M05 A2924 RMK AO2 SLP905 60000 T10281050 11017 21056 56008 FZRANO $
PARS 202334Z AUTO 24005KT 10SM OVC015 M02/M05 A2924 RMK AO2 FZRANO $
PARS 202256Z AUTO 22005KT 10SM OVC013 M02/M04 A2925 RMK AO2 SLP908 T10221039 FZRANO $
PARS 202208Z AUTO 20008KT 10SM OVC011 M02/M03 A2925 RMK AO2 FZRANO $
PARS 202156Z AUTO 16004KT 10SM OVC009 M03/M04 A2925 RMK AO2 SNB02E31 CIG 007V015 SLP909 P0000 T10281039 FZRANO $
PARS 202118Z AUTO 22003KT 9SM -SN OVC007 M03/M04 A2926 RMK AO2 SNB02 P0000 FZRANO $
PARS 202056Z AUTO 00000KT 10SM OVC005 M03/M04 A2926 RMK AO2 SNB05E39 SLP913 P0000 60000 T10331039 58002 FZRANO $
PARS 202007Z AUTO 25003KT 7SM -SN OVC005 M04/M04 A2927 RMK AO2 SNB05 P0000 FZRANO $
PARS 201956Z AUTO 24003KT 6SM BR OVC003 M04/M04 A2927 RMK AO2 SLP915 T10391044 FZRANO $
PARS 201856Z AUTO 24004KT 9SM BKN003 OVC011 M05/M06 A2927 RMK AO2 SNB1759E09 SLP916 P0000 T10501056 FZRANO $
PARS 201833Z AUTO 26005KT 6SM BR OVC003 M06/M06 A2927 RMK AO2 SNB1759E09 P0000 FZRANO $
PARS 201822Z AUTO 21004KT 2SM BR OVC003 M06/M06 A2927 RMK AO2 VIS 1 1/4V4 SNB1759E09 P0000 FZRANO $
PARS 201805Z AUTO 21004KT 3SM -SN BR OVC003 M05/M06 A2927 RMK AO2 SNB1759 P0000 FZRANO $
PARS 201756Z AUTO 21003KT 2 1/2SM BR OVC003 M05/M06 A2927 RMK AO2 VIS 1 3/4V4 SNE47 SLP915 P0000 60000 T10501056 11044 21056 56008 FZRANO $
PARS 201743Z AUTO 19004KT 2SM -SN BR OVC003 M05/M06 A2927 RMK AO2 VIS 1 1/4V4 P0000 FZRANO $
PARS 201726Z AUTO 21005KT 1 1/2SM -SN BR OVC003 M05/M06 A2927 RMK AO2 P0000 FZRANO $
PARS 201705Z AUTO 20005KT 1SM -SN BR OVC003 M05/M06 A2927 RMK AO2 P0000 FZRANO RVRNO $
PARS 201656Z AUTO 21004KT 3/4SM -SN BR OVC003 M05/M06 A2928 RMK AO2 SLP918 P0000 T10501056 FZRANO RVRNO $
PARS 201617Z AUTO 19004KT 3/4SM -SN BR OVC003 M06/M06 A2928 RMK AO2 P0000 FZRANO RVRNO $
PARS 201613Z AUTO 19003KT 1 1/4SM -SN BR OVC003 M06/M06 A2928 RMK AO2 P0000 FZRANO $
PARS 201603Z AUTO 19004KT 2SM -SN BR OVC003 M06/M06 A2928 RMK AO2 P0000 FZRANO $
PARS 201556Z AUTO 21004KT 3SM -SN BR OVC003 M06/M06 A2928 RMK AO2 SNB28 SLP920 P0000 T10561061 FZRANO $
PARS 201456Z AUTO 00000KT 6SM BR OVC003 M06/M06 A2929 RMK AO2 SNE52 SLP923 P0000 60000 T10561061 56010 FZRANO $
PARS 201424Z AUTO 24004KT 3SM -SN BR OVC003 M05/M06 A2929 RMK AO2 P0000 FZRANO $
PARS 201415Z AUTO 23004KT 2 1/2SM -SN BR OVC003 M05/M06 A2929 RMK AO2 VIS 2V5 P0000 FZRANO $
PARS 201356Z AUTO 26004KT 1 1/2SM -SN BR OVC003 M05/M06 A2930 RMK AO2 VIS 1 1/4V3 SNB02 SLP925 P0000 T10501056 FZRANO $
PARS 201338Z AUTO 23005KT 4SM -SN BR OVC003 M05/M06 A2930 RMK AO2 SNB02 P0000 FZRANO $
PARS 201329Z AUTO 24005KT 2SM -SN BR OVC003 M05/M06 A2930 RMK AO2 SNB02 P0000 FZRANO $
PARS 201256Z AUTO 28003KT 10SM OVC003 M04/M05 A2931 RMK AO2 SNE30 SLP929 P0000 T10441050 FZRANO $
PARS 201156Z AUTO 24005KT 9SM -SN OVC003 M04/M04 A2932 RMK AO2 SLP933 P0000 60000 T10391044 11033 21056 58015 FZRANO $
PARS 201118Z AUTO 24005KT 4SM -SN BR OVC003 M04/M04 A2933 RMK AO2 P0000 FZRANO $
PARS 201056Z AUTO 24008KT 7SM -SN OVC005 M04/M04 A2934 RMK AO2 SLP939 P0000 T10391044 FZRANO $
PARS 200956Z AUTO 26003KT 9SM -SN OVC005 M04/M04 A2935 RMK AO2 SLP943 P0000 T10391044 FZRANO $
PARS 200915Z AUTO 25007KT 9SM -SN OVC005 M04/M04 A2936 RMK AO2 P0000 FZRANO $
PARS 200856Z AUTO 25005KT 10SM -SN OVC003 M04/M04 A2936 RMK AO2 SNB53 SLP948 P0000 60000 T10391044 56009 FZRANO $
PARS 200832Z AUTO 24004KT 10SM OVC003 M04/M05 A2937 RMK AO2 FZRANO $
PARS 200815Z AUTO 25003KT 10SM BKN005 M05/M06 A2937 RMK AO2 FZRANO $
PARS 200806Z AUTO 25004KT 10SM SCT005 M06/M06 A2936 RMK AO2 FZRANO $
PARS 200756Z AUTO 25005KT 10SM CLR M05/M06 A2936 RMK AO2 SLP948 T10501061 400061078 FZRANO $
PARS 200656Z AUTO 25003KT 10SM CLR M04/M05 A2937 RMK AO2 SNB01E32 SLP952 P0000 T10441050 FZRANO $
PARS 200556Z AUTO 27003KT 10SM BKN044 M03/M04 A2939 RMK AO2 SLP957 60000 T10331044 11006 21039 58011 FZRANO $
PARS 200456Z AUTO 00000KT 10SM CLR M03/M05 A2941 RMK AO2 SNE24 SLP964 P0000 T10331050 FZRANO $
PARS 200440Z AUTO 00000KT 10SM FEW014 M03/M04 A2941 RMK AO2 SNE24 P0000 FZRANO $
PARS 200421Z AUTO 24005KT 9SM -SN FEW007 BKN016 BKN070 M02/M04 A2942 RMK AO2 P0000 FZRANO $
PARS 200407Z AUTO 26003KT 2 1/2SM -SN BR FEW007 BKN016 OVC028 M02/M03 A2942 RMK AO2 P0000 FZRANO $
PARS 200356Z AUTO 00000KT 6SM -SN BR SCT016 BKN028 OVC035 M03/M04 A2943 RMK AO2 UPB48E51SNB51 SLP969 P0000 T10281039 FZRANO $
PARS 200352Z AUTO 00000KT 7SM -SN FEW016 BKN028 OVC035 M03/M04 A2943 RMK AO2 UPB48E51SNB51 P0000 FZRANO $
PARS 200256Z AUTO 22003KT 10SM SCT021 M03/M04 A2944 RMK AO2 SNE02 SLP974 P0000 60000 T10281044 58015 FZRANO $
PARS 200222Z AUTO 22003KT 10SM SCT017 M01/M04 A2945 RMK AO2 SNE02 P0000 FZRANO $
PARS 200156Z AUTO 26006KT 9SM -SN BKN015 BKN049 M02/M03 A2946 RMK AO2 SLP980 P0000 T10171033 FZRANO $
PARS 200148Z AUTO 25007KT 6SM -SN BR FEW010 BKN015 BKN049 M02/M03 A2946 RMK AO2 P0000 FZRANO $
PARS 200130Z AUTO 26007KT 9SM -SN SCT009 BKN033 BKN049 M01/M03 A2947 RMK AO2 P0000 FZRANO $
PARS 200117Z AUTO 24007KT 9SM -SN BKN009 OVC035 M01/M03 A2947 RMK AO2 CIG 005V011 P0000 FZRANO $
PARS 200107Z AUTO 25006KT 5SM -SN BR SCT009 OVC035 M01/M03 A2947 RMK AO2 P0000 FZRANO $
PARS 200102Z AUTO 25006KT 2SM -SN BR BKN009 BKN015 OVC035 M01/M03 A2947 RMK AO2 CIG 005V012 P0000 FZRANO $
PARS 200056Z AUTO 25007KT 1 3/4SM -SN BR SCT009 BKN015 OVC035 M01/M03 A2947 RMK AO2 VIS 1 1/4V5 SNB45 SLP984 P0000 T10111028 FZRANO $
PARS 200047Z AUTO 25007KT 10SM -SN FEW009 BKN015 OVC037 M01/M03 A2947 RMK AO2 SNB45 P0000 FZRANO $
PARS 200041Z AUTO 27007KT 240V310 10SM BKN015 OVC039 M01/M03 A2947 RMK AO2 FZRANO $
PARS 192356Z AUTO 25010KT 10SM FEW014 M01/M03 A2949 RMK AO2 SLP989 T10061033 10006 21078 58022 FZRANO $
PARS 192256Z AUTO 26006KT 10SM CLR 00/M04 A2951 RMK AO2 SLP997 T00001039 FZRANO $
PARS 192156Z AUTO 25007KT 10SM BKN041 M01/M04 A2953 RMK AO2 SLP005 T10111039 FZRANO $
PARS 192056Z AUTO 24004KT 10SM CLR M03/M04 A2955 RMK AO2 SLP011 T10281039 58009 FZRANO $